createdAt,value
2023-02-13T00:01:56.859Z,99.90
2023-02-13T00:04:23.543Z,99.90
2023-02-13T00:06:50.155Z,99.90
2023-02-13T00:09:16.808Z,99.90
2023-02-13T00:11:43.490Z,99.90
2023-02-13T00:14:10.254Z,99.90
2023-02-13T00:16:37.047Z,99.90
2023-02-13T00:19:04.114Z,99.90
2023-02-13T00:21:30.927Z,99.90
2023-02-13T00:23:58.602Z,99.90
2023-02-13T00:26:25.239Z,99.90
2023-02-13T00:28:51.937Z,99.90
2023-02-13T00:31:20.934Z,99.90
2023-02-13T00:33:47.860Z,99.90
2023-02-13T00:36:18.068Z,99.90
2023-02-13T00:38:45.093Z,99.90
2023-02-13T00:41:12.445Z,99.90
2023-02-13T00:43:39.488Z,99.90
2023-02-13T00:46:06.179Z,99.90
2023-02-13T00:48:34.691Z,99.90
2023-02-13T00:51:02.445Z,99.90
2023-02-13T00:53:29.527Z,99.90
2023-02-13T00:55:56.384Z,99.90
2023-02-13T00:58:23.724Z,99.90
2023-02-13T01:00:52.071Z,99.90
2023-02-13T01:03:19.873Z,99.90
2023-02-13T01:05:47.394Z,99.90
2023-02-13T01:08:15.324Z,99.90
2023-02-13T01:10:42.681Z,99.90
2023-02-13T01:13:10.144Z,99.90
2023-02-13T01:15:37.492Z,99.90
2023-02-13T01:18:04.495Z,99.90
2023-02-13T01:20:31.145Z,99.90
2023-02-13T01:22:58.635Z,99.90
2023-02-13T01:25:25.427Z,99.90
2023-02-13T01:27:52.045Z,99.90
2023-02-13T01:30:19.053Z,99.90
2023-02-13T01:32:46.848Z,99.90
2023-02-13T01:35:14.696Z,99.90
2023-02-13T01:37:42.226Z,99.90
2023-02-13T01:40:12.112Z,99.90
2023-02-13T01:42:39.182Z,99.90
2023-02-13T01:45:30.048Z,99.90
2023-02-13T01:47:56.644Z,99.90
2023-02-13T01:50:31.679Z,99.90
2023-02-13T01:53:04.917Z,99.90
2023-02-13T01:55:34.083Z,99.90
2023-02-13T01:58:09.493Z,99.90
2023-02-13T02:00:38.085Z,99.90
2023-02-13T02:03:24.882Z,99.90
2023-02-13T02:05:54.846Z,99.90
2023-02-13T02:08:21.610Z,99.90
2023-02-13T02:10:48.302Z,99.90
2023-02-13T02:13:18.648Z,99.90
2023-02-13T02:15:47.292Z,99.90
2023-02-13T02:18:22.396Z,99.90
2023-02-13T02:21:00.678Z,99.90
2023-02-13T02:23:52.207Z,99.90
2023-02-13T02:26:31.664Z,99.90
2023-02-13T02:29:29.687Z,99.90
2023-02-13T02:32:14.969Z,99.90
2023-02-13T02:35:01.758Z,99.90
2023-02-13T02:37:36.581Z,99.90
2023-02-13T02:40:25.285Z,99.90
2023-02-13T02:43:13.830Z,99.90
2023-02-13T02:45:49.454Z,99.90
2023-02-13T02:49:05.197Z,99.90
2023-02-13T02:51:52.641Z,99.90
2023-02-13T02:55:06.487Z,99.90
2023-02-13T02:58:10.593Z,99.90
2023-02-13T03:01:00.702Z,99.90
2023-02-13T03:03:47.846Z,99.90
2023-02-13T03:06:24.371Z,99.90
2023-02-13T03:09:20.525Z,99.90
2023-02-13T03:12:10.247Z,99.90
2023-02-13T03:14:37.715Z,99.90
2023-02-13T03:17:23.929Z,99.90
2023-02-13T03:20:39.458Z,99.90
2023-02-13T03:23:16.143Z,99.90
2023-02-13T03:26:13.571Z,99.90
2023-02-13T03:29:33.788Z,99.90
2023-02-13T03:32:25.756Z,99.90
2023-02-13T03:35:23.131Z,99.90
2023-02-13T03:37:55.157Z,99.90
2023-02-13T03:40:24.680Z,99.90
2023-02-13T03:43:11.189Z,99.90
2023-02-13T03:45:53.554Z,99.90
2023-02-13T03:48:52.787Z,99.90
2023-02-13T03:51:27.884Z,99.90
2023-02-13T03:54:01.989Z,99.90
2023-02-13T03:56:50.710Z,99.90
2023-02-13T03:59:26.495Z,99.90
2023-02-13T04:02:07.291Z,99.90
2023-02-13T04:04:47.418Z,99.90
2023-02-13T04:07:29.380Z,99.90
2023-02-13T04:10:06.751Z,99.90
2023-02-13T04:13:05.332Z,99.90
2023-02-13T04:15:42.372Z,99.90
2023-02-13T04:18:17.453Z,99.90
2023-02-13T04:20:44.329Z,99.90
2023-02-13T04:23:12.792Z,99.90
2023-02-13T04:25:44.072Z,99.90
2023-02-13T04:28:10.791Z,99.90
2023-02-13T04:30:37.930Z,99.90
2023-02-13T04:33:04.651Z,99.90
2023-02-13T04:35:31.337Z,99.90
2023-02-13T04:37:58.028Z,99.90
2023-02-13T04:40:24.869Z,99.90
2023-02-13T04:42:51.509Z,99.90
2023-02-13T04:45:18.439Z,99.90
2023-02-13T04:47:51.414Z,99.90
2023-02-13T04:50:18.347Z,99.90
2023-02-13T04:52:45.104Z,99.90
2023-02-13T04:55:12.415Z,99.90
2023-02-13T04:57:39.701Z,99.90
2023-02-13T05:00:07.768Z,99.90
2023-02-13T05:02:34.351Z,99.90
2023-02-13T05:05:00.957Z,99.90
2023-02-13T05:07:27.774Z,99.90
2023-02-13T05:09:54.431Z,99.90
2023-02-13T05:12:21.277Z,99.90
2023-02-13T05:14:48.336Z,99.90
2023-02-13T05:17:15.028Z,99.90
2023-02-13T05:19:41.627Z,99.90
2023-02-13T05:22:28.624Z,99.90
2023-02-13T05:24:55.428Z,99.90
2023-02-13T05:27:22.036Z,99.90
2023-02-13T05:29:48.671Z,99.90
2023-02-13T05:32:15.382Z,99.90
2023-02-13T05:34:42.059Z,99.90
2023-02-13T05:37:08.718Z,99.90
2023-02-13T05:39:35.307Z,99.90
2023-02-13T05:42:04.730Z,99.90
2023-02-13T05:44:31.902Z,99.90
2023-02-13T05:46:58.519Z,99.90
2023-02-13T05:49:25.259Z,99.90
2023-02-13T05:51:52.393Z,99.90
2023-02-13T05:54:19.656Z,99.90
2023-02-13T05:56:46.964Z,99.90
2023-02-13T05:59:13.702Z,99.90
2023-02-13T06:01:40.379Z,99.90
2023-02-13T06:04:07.045Z,99.90
2023-02-13T06:06:33.858Z,99.90
2023-02-13T06:09:00.468Z,99.90
2023-02-13T06:11:27.153Z,99.90
2023-02-13T06:13:53.763Z,99.90
2023-02-13T06:16:20.644Z,99.90
2023-02-13T06:18:47.293Z,99.90
2023-02-13T06:21:14.013Z,99.90
2023-02-13T06:23:40.633Z,99.90
2023-02-13T06:26:09.090Z,99.90
2023-02-13T06:28:36.409Z,99.90
2023-02-13T06:31:03.222Z,99.90
2023-02-13T06:33:29.983Z,99.90
2023-02-13T06:35:56.611Z,99.90
2023-02-13T06:38:24.264Z,99.90
2023-02-13T06:40:51.741Z,99.90
2023-02-13T06:43:18.620Z,99.90
2023-02-13T06:45:46.898Z,99.90
2023-02-13T06:48:14.092Z,99.90
2023-02-13T06:50:40.817Z,99.90
2023-02-13T06:53:07.516Z,99.90
2023-02-13T06:55:34.259Z,99.90
2023-02-13T06:58:00.882Z,99.90
2023-02-13T07:00:27.660Z,99.90
2023-02-13T07:02:54.473Z,99.90
2023-02-13T07:05:21.173Z,99.90
2023-02-13T07:07:47.852Z,99.90
2023-02-13T07:10:14.811Z,99.90
2023-02-13T07:12:41.584Z,99.90
2023-02-13T07:15:08.617Z,99.90
2023-02-13T07:17:35.434Z,99.90
2023-02-13T07:20:02.151Z,99.90
2023-02-13T07:22:30.223Z,99.90
2023-02-13T07:24:58.868Z,99.90
2023-02-13T07:27:29.072Z,99.90
2023-02-13T07:29:58.595Z,99.90
2023-02-13T07:32:25.586Z,99.90
2023-02-13T07:35:01.314Z,99.90
2023-02-13T07:37:29.810Z,99.90
2023-02-13T07:39:56.437Z,99.90
2023-02-13T07:42:23.147Z,99.90
2023-02-13T07:44:49.827Z,99.90
2023-02-13T07:47:19.037Z,99.90
2023-02-13T07:49:46.744Z,99.90
2023-02-13T07:52:13.417Z,99.90
2023-02-13T07:54:47.407Z,99.90
2023-02-13T07:57:15.928Z,99.90
2023-02-13T07:59:42.791Z,99.90
2023-02-13T08:02:14.208Z,99.90
2023-02-13T08:04:41.533Z,99.90
2023-02-13T08:07:08.199Z,99.90
2023-02-13T08:09:53.254Z,99.90
2023-02-13T08:12:19.955Z,99.90
2023-02-13T08:14:46.630Z,99.90
2023-02-13T08:17:13.453Z,99.90
2023-02-13T08:19:40.428Z,99.90
2023-02-13T08:22:07.101Z,99.90
2023-02-13T08:24:33.789Z,99.90
2023-02-13T08:27:00.424Z,99.90
2023-02-13T08:29:27.162Z,99.90
2023-02-13T08:31:53.920Z,99.90
2023-02-13T08:34:20.621Z,99.90
2023-02-13T08:36:47.263Z,99.90
2023-02-13T08:39:13.940Z,99.90
2023-02-13T08:41:40.804Z,99.90
2023-02-13T08:44:07.656Z,99.90
2023-02-13T08:46:34.329Z,99.90
2023-02-13T08:49:01.059Z,99.90
2023-02-13T08:51:27.778Z,99.90
2023-02-13T08:53:54.437Z,99.90
2023-02-13T08:56:21.073Z,99.90
2023-02-13T08:58:50.769Z,99.70
2023-02-13T09:01:17.588Z,98.60
2023-02-13T09:03:44.384Z,97.00
2023-02-13T09:06:11.040Z,95.60
2023-02-13T09:08:37.701Z,94.70
2023-02-13T09:11:07.220Z,91.90
2023-02-13T09:13:36.912Z,90.90
2023-02-13T09:16:06.159Z,87.10
2023-02-13T09:18:33.446Z,85.50
2023-02-13T09:21:11.123Z,83.90
2023-02-13T09:23:40.064Z,76.60
2023-02-13T09:26:09.239Z,74.60
2023-02-13T09:28:36.359Z,67.70
2023-02-13T09:31:11.153Z,73.10
2023-02-13T09:33:38.284Z,70.40
2023-02-13T09:36:06.590Z,69.20
2023-02-13T09:38:33.929Z,67.10
2023-02-13T09:41:07.810Z,65.80
2023-02-13T09:44:11.663Z,61.70
2023-02-13T09:46:40.163Z,60.10
2023-02-13T09:49:12.423Z,58.20
2023-02-13T09:51:40.721Z,57.60
2023-02-13T09:54:09.015Z,55.60
2023-02-13T09:56:54.853Z,52.60
2023-02-13T09:59:50.092Z,52.00
2023-02-13T10:02:46.460Z,51.30
2023-02-13T10:05:38.531Z,46.90
2023-02-13T10:08:44.812Z,49.40
2023-02-13T10:11:26.617Z,49.20
2023-02-13T10:14:27.048Z,48.30
2023-02-13T10:17:01.896Z,47.40
2023-02-13T10:19:36.307Z,47.00
2023-02-13T10:22:28.291Z,45.60
2023-02-13T10:25:23.275Z,42.90
2023-02-13T10:27:58.113Z,43.80
2023-02-13T10:30:30.500Z,43.20
2023-02-13T10:33:22.966Z,42.00
2023-02-13T10:35:58.673Z,42.10
2023-02-13T10:38:28.167Z,41.00
2023-02-13T10:41:05.553Z,39.80
2023-02-13T10:43:53.353Z,38.80
2023-02-13T10:46:45.395Z,39.00
2023-02-13T10:49:37.399Z,37.90
2023-02-13T10:52:32.753Z,38.30
2023-02-13T10:55:05.017Z,37.40
2023-02-13T10:57:56.846Z,37.40
2023-02-13T11:00:36.588Z,36.50
2023-02-13T11:03:03.628Z,36.10
2023-02-13T11:05:41.076Z,35.90
2023-02-13T11:08:28.905Z,32.50
2023-02-13T11:10:55.569Z,34.20
2023-02-13T11:13:24.965Z,35.60
2023-02-13T11:16:07.798Z,34.60
2023-02-13T11:18:38.085Z,34.80
2023-02-13T11:21:20.151Z,34.10
2023-02-13T11:23:56.214Z,33.50
2023-02-13T11:26:29.005Z,33.80
2023-02-13T11:28:58.408Z,32.90
2023-02-13T11:31:29.397Z,32.20
2023-02-13T11:33:59.059Z,32.60
2023-02-13T11:36:34.302Z,31.80
2023-02-13T11:39:06.845Z,32.00
2023-02-13T11:41:44.717Z,33.00
2023-02-13T11:44:27.065Z,32.50
2023-02-13T11:46:56.429Z,32.10
2023-02-13T11:49:35.629Z,31.30
2023-02-13T11:52:04.983Z,31.10
2023-02-13T11:54:36.405Z,30.50
2023-02-13T11:57:15.826Z,31.30
2023-02-13T11:59:44.778Z,31.30
2023-02-13T12:02:24.431Z,31.20
2023-02-13T12:05:14.837Z,30.40
2023-02-13T12:07:42.790Z,29.90
2023-02-13T12:10:17.743Z,30.20
2023-02-13T12:12:56.589Z,30.00
2023-02-13T12:15:30.325Z,29.90
2023-02-13T12:18:23.761Z,29.90
2023-02-13T12:21:18.343Z,29.20
2023-02-13T12:24:11.297Z,29.70
2023-02-13T12:26:50.897Z,29.50
2023-02-13T12:29:39.288Z,29.00
2023-02-13T12:32:26.677Z,28.60
2023-02-13T12:35:07.990Z,29.50
2023-02-13T12:37:56.706Z,29.50
2023-02-13T12:40:33.065Z,29.30
2023-02-13T12:43:44.999Z,29.50
2023-02-13T12:46:46.772Z,28.10
2023-02-13T12:49:16.113Z,29.60
2023-02-13T12:52:02.053Z,29.40
2023-02-13T12:54:31.362Z,29.90
2023-02-13T12:57:36.471Z,30.40
2023-02-13T13:00:27.031Z,30.40
2023-02-13T13:03:00.196Z,30.30
2023-02-13T13:05:41.049Z,29.90
2023-02-13T13:08:27.397Z,29.80
2023-02-13T13:11:22.176Z,29.70
2023-02-13T13:14:34.676Z,29.50
2023-02-13T13:17:26.058Z,28.80
2023-02-13T13:20:17.704Z,30.20
2023-02-13T13:22:54.429Z,30.60
2023-02-13T13:25:59.085Z,30.20
2023-02-13T13:28:37.700Z,30.10
2023-02-13T13:31:05.800Z,29.90
2023-02-13T13:33:33.744Z,30.30
2023-02-13T13:36:40.438Z,29.30
2023-02-13T13:39:36.147Z,30.70
2023-02-13T13:42:11.752Z,30.80
2023-02-13T13:45:00.775Z,29.70
2023-02-13T13:47:39.112Z,30.00
2023-02-13T13:50:17.458Z,30.80
2023-02-13T13:53:20.360Z,31.30
2023-02-13T13:55:47.048Z,31.20
2023-02-13T13:58:46.625Z,31.00
2023-02-13T14:01:29.639Z,30.80
2023-02-13T14:04:04.524Z,30.30
2023-02-13T14:06:46.137Z,30.20
2023-02-13T14:09:35.647Z,30.10
2023-02-13T14:12:42.460Z,30.30
2023-02-13T14:15:37.830Z,30.70
2023-02-13T14:18:13.120Z,31.10
2023-02-13T14:20:50.778Z,31.30
2023-02-13T14:23:36.009Z,31.30
2023-02-13T14:26:18.037Z,31.00
2023-02-13T14:28:50.418Z,30.20
2023-02-13T14:31:27.343Z,31.50
2023-02-13T14:34:18.257Z,32.10
2023-02-13T14:37:02.064Z,33.90
2023-02-13T14:39:31.192Z,35.10
2023-02-13T14:42:01.859Z,35.50
2023-02-13T14:44:50.615Z,35.30
2023-02-13T14:47:25.895Z,35.20
2023-02-13T14:49:53.352Z,34.60
2023-02-13T14:52:27.601Z,35.00
2023-02-13T14:54:59.022Z,35.10
2023-02-13T14:57:42.608Z,36.30
2023-02-13T15:00:31.650Z,37.30
2023-02-13T15:03:31.570Z,40.90
2023-02-13T15:06:04.091Z,42.20
2023-02-13T15:08:47.113Z,41.90
2023-02-13T15:11:35.845Z,41.20
2023-02-13T15:14:21.012Z,40.90
2023-02-13T15:16:55.547Z,41.80
2023-02-13T15:19:24.467Z,41.70
2023-02-13T15:21:54.551Z,41.50
2023-02-13T15:24:25.074Z,41.90
2023-02-13T15:27:07.238Z,42.40
2023-02-13T15:29:48.850Z,42.80
2023-02-13T15:32:24.211Z,43.10
2023-02-13T15:34:50.878Z,43.70
2023-02-13T15:37:23.011Z,44.00
2023-02-13T15:39:49.680Z,43.50
2023-02-13T15:42:16.641Z,43.70
2023-02-13T15:44:46.849Z,43.40
2023-02-13T15:47:28.783Z,43.10
2023-02-13T15:49:56.105Z,43.50
2023-02-13T15:52:33.690Z,44.30
2023-02-13T15:55:00.685Z,44.70
2023-02-13T15:57:28.255Z,45.80
2023-02-13T15:59:56.609Z,46.40
2023-02-13T16:02:33.802Z,46.30
2023-02-13T16:05:02.090Z,46.90
2023-02-13T16:07:30.563Z,47.20
2023-02-13T16:10:33.654Z,46.80
2023-02-13T16:13:04.489Z,47.70
2023-02-13T16:15:33.982Z,48.40
2023-02-13T16:18:01.154Z,48.70
2023-02-13T16:20:30.208Z,49.20
2023-02-13T16:22:59.648Z,49.30
2023-02-13T16:25:34.918Z,49.60
2023-02-13T16:28:04.122Z,50.40
2023-02-13T16:30:52.123Z,51.20
2023-02-13T16:33:27.030Z,51.70
2023-02-13T16:36:16.848Z,52.50
2023-02-13T16:38:48.392Z,53.70
2023-02-13T16:41:25.844Z,55.20
2023-02-13T16:43:59.516Z,57.40
2023-02-13T16:46:28.396Z,59.40
2023-02-13T16:48:58.300Z,61.80
2023-02-13T16:51:36.689Z,64.70
2023-02-13T16:54:11.129Z,67.50
2023-02-13T16:56:59.082Z,71.50
2023-02-13T16:59:40.509Z,75.50
2023-02-13T17:02:15.100Z,80.10
2023-02-13T17:05:05.020Z,84.10
2023-02-13T17:07:44.462Z,88.20
2023-02-13T17:10:27.198Z,90.80
2023-02-13T17:12:56.482Z,93.10
2023-02-13T17:15:26.066Z,95.30
2023-02-13T17:17:53.689Z,96.90
2023-02-13T17:20:26.998Z,98.90
2023-02-13T17:22:55.861Z,99.90
2023-02-13T17:25:27.041Z,99.90
2023-02-13T17:27:56.561Z,99.90
2023-02-13T17:30:26.104Z,99.90
2023-02-13T17:33:23.346Z,99.90
2023-02-13T17:35:50.767Z,99.90
2023-02-13T17:38:17.761Z,99.90
2023-02-13T17:40:45.382Z,99.90
2023-02-13T17:43:13.788Z,99.90
2023-02-13T17:45:40.928Z,99.90
2023-02-13T17:48:07.719Z,99.90
2023-02-13T17:50:36.339Z,99.90
2023-02-13T17:53:05.522Z,99.90
2023-02-13T17:55:33.530Z,99.90
2023-02-13T17:58:01.206Z,99.90
2023-02-13T18:00:31.110Z,99.90
2023-02-13T18:02:59.435Z,99.90
2023-02-13T18:05:26.760Z,99.90
2023-02-13T18:07:53.619Z,99.90
2023-02-13T18:10:25.905Z,99.90
2023-02-13T18:12:54.679Z,99.90
2023-02-13T18:15:21.700Z,99.90
2023-02-13T18:17:48.696Z,99.90
2023-02-13T18:20:18.876Z,99.90
2023-02-13T18:22:45.935Z,99.90
2023-02-13T18:25:13.851Z,99.90
2023-02-13T18:27:40.550Z,99.90
2023-02-13T18:30:08.112Z,99.90
2023-02-13T18:32:35.082Z,99.90
2023-02-13T18:35:02.529Z,99.90
2023-02-13T18:37:30.044Z,99.90
2023-02-13T18:39:57.025Z,99.90
2023-02-13T18:42:23.685Z,99.90
2023-02-13T18:44:50.318Z,99.90
2023-02-13T18:47:17.445Z,99.90
2023-02-13T18:49:46.344Z,99.90
2023-02-13T18:52:13.124Z,99.90
2023-02-13T18:54:39.892Z,99.90
2023-02-13T18:57:07.154Z,99.90
2023-02-13T18:59:33.867Z,99.90
2023-02-13T19:02:03.154Z,99.90
2023-02-13T19:04:31.629Z,99.90
2023-02-13T19:06:58.280Z,99.90
2023-02-13T19:09:24.933Z,99.90
2023-02-13T19:11:51.698Z,99.90
2023-02-13T19:14:18.582Z,99.90
2023-02-13T19:16:45.291Z,99.90
2023-02-13T19:19:12.019Z,99.90
2023-02-13T19:21:39.389Z,99.90
2023-02-13T19:24:08.700Z,99.90
2023-02-13T19:26:36.244Z,99.90
2023-02-13T19:29:03.701Z,99.90
2023-02-13T19:31:32.355Z,99.90
2023-02-13T19:34:02.399Z,99.90
2023-02-13T19:36:30.120Z,99.90
2023-02-13T19:38:58.987Z,99.90
2023-02-13T19:41:26.066Z,99.90
2023-02-13T19:43:55.499Z,99.90
2023-02-13T19:46:25.480Z,99.90
2023-02-13T19:48:52.730Z,99.90
2023-02-13T19:51:22.253Z,99.90
2023-02-13T19:53:48.990Z,99.90
2023-02-13T19:56:15.715Z,99.90
2023-02-13T19:58:43.116Z,99.90
2023-02-13T20:01:16.273Z,99.90
2023-02-13T20:03:44.453Z,99.90
2023-02-13T20:06:14.331Z,99.90
2023-02-13T20:08:42.940Z,99.90
2023-02-13T20:11:11.096Z,99.90
2023-02-13T20:13:38.109Z,99.90
2023-02-13T20:16:06.791Z,99.90
2023-02-13T20:18:37.634Z,99.90
2023-02-13T20:21:08.402Z,99.90
2023-02-13T20:23:35.073Z,99.90
2023-02-13T20:26:06.641Z,99.90
2023-02-13T20:28:33.524Z,99.90
2023-02-13T20:31:00.777Z,99.90
2023-02-13T20:33:27.748Z,99.90
2023-02-13T20:35:55.667Z,99.90
2023-02-13T20:38:22.290Z,99.90
2023-02-13T20:40:48.881Z,99.90
2023-02-13T20:43:15.557Z,99.90
2023-02-13T20:45:42.246Z,99.90
2023-02-13T20:48:08.936Z,99.90
2023-02-13T20:50:35.525Z,99.90
2023-02-13T20:53:02.188Z,99.90
2023-02-13T20:55:28.782Z,99.90
2023-02-13T20:57:55.389Z,99.90
2023-02-13T21:00:22.313Z,99.90
2023-02-13T21:02:48.993Z,99.90
2023-02-13T21:05:15.672Z,99.90
2023-02-13T21:07:42.395Z,99.90
2023-02-13T21:10:10.111Z,99.90
2023-02-13T21:12:36.757Z,99.90
2023-02-13T21:15:03.605Z,99.90
2023-02-13T21:17:30.365Z,99.90
2023-02-13T21:19:57.068Z,99.90
2023-02-13T21:22:23.730Z,99.90
2023-02-13T21:24:51.121Z,99.90
2023-02-13T21:27:17.911Z,99.90
2023-02-13T21:29:44.586Z,99.90
2023-02-13T21:32:11.277Z,99.90
2023-02-13T21:34:38.105Z,99.90
2023-02-13T21:37:04.841Z,99.90
2023-02-13T21:39:31.498Z,99.90
2023-02-13T21:41:58.160Z,99.90
2023-02-13T21:44:24.905Z,99.90
2023-02-13T21:46:51.608Z,99.90
2023-02-13T21:49:19.149Z,99.90
2023-02-13T21:51:46.081Z,99.90
2023-02-13T21:54:13.192Z,99.90
2023-02-13T21:56:42.246Z,99.90
2023-02-13T21:59:10.225Z,99.90
2023-02-13T22:01:37.979Z,99.90
2023-02-13T22:04:07.233Z,99.90
2023-02-13T22:06:36.396Z,99.90
2023-02-13T22:09:08.670Z,99.90
2023-02-13T22:11:36.107Z,99.90
2023-02-13T22:14:05.230Z,99.90
2023-02-13T22:16:34.988Z,99.90
2023-02-13T22:19:02.754Z,99.90
2023-02-13T22:21:31.254Z,99.90
2023-02-13T22:23:58.231Z,99.90
2023-02-13T22:26:36.494Z,99.90
2023-02-13T22:29:06.582Z,99.90
2023-02-13T22:31:33.740Z,99.90
2023-02-13T22:34:05.041Z,99.90
2023-02-13T22:36:33.828Z,99.90
2023-02-13T22:39:00.654Z,99.90
2023-02-13T22:41:27.508Z,99.90
2023-02-13T22:43:54.506Z,99.90
2023-02-13T22:46:23.959Z,99.90
2023-02-13T22:48:52.448Z,99.90
2023-02-13T22:51:24.482Z,99.90
2023-02-13T22:53:55.544Z,99.90
2023-02-13T22:56:23.240Z,99.90
2023-02-13T22:58:49.912Z,99.90
2023-02-13T23:01:21.427Z,99.90
2023-02-13T23:03:48.316Z,99.90
2023-02-13T23:06:15.359Z,99.90
2023-02-13T23:08:42.420Z,99.90
2023-02-13T23:11:33.096Z,99.90
2023-02-13T23:14:00.258Z,99.90
2023-02-13T23:16:28.694Z,99.90
2023-02-13T23:18:57.393Z,99.90
2023-02-13T23:21:25.567Z,99.90
2023-02-13T23:23:52.517Z,99.90
2023-02-13T23:26:19.487Z,99.90
2023-02-13T23:28:46.237Z,99.90
2023-02-13T23:31:12.954Z,99.90
2023-02-13T23:33:39.770Z,99.90
2023-02-13T23:36:06.891Z,99.90
2023-02-13T23:38:33.673Z,99.90
2023-02-13T23:41:18.485Z,99.90
2023-02-13T23:43:45.141Z,99.90
2023-02-13T23:46:11.775Z,99.90
2023-02-13T23:48:38.432Z,99.90
2023-02-13T23:51:05.222Z,99.90
2023-02-13T23:53:35.991Z,99.90
2023-02-13T23:56:03.155Z,99.90
2023-02-13T23:58:29.792Z,99.90
